Archival Weather

Heathrow

Heathrow, United Kingdom (EGLL)

Report from: Thursday, June 23, 2022 6:20 AM BST
Current time: Tuesday, August 16, 2022 8:02 AM BST

Current weather
Weather history
Weather forecast

Temperature15.0°C (59.0°F)
Dew point12.0°C (53.6°F)
Winds 4 kts (2.1 m/s, 4.6 mph) Vrb
Winds variableWinds variable from Northeast (50°) to North-Northwest (330°)
Visibility6.2 mi. (10 km)
Clouds Sky clear
Altimeter29.85 in.Hg (1011 mB)
Relative humidity82 %
Density altitude273 ft. (83 m)
Remarks Fully automated report
No clouds detected
No significant changes expected in the next two hours
Flight conditions Visual Meteorological Conditions
Raw dataEGLL 230520Z AUTO 03004KT 330V050 9999 NCD 15/12 Q1011 NOSIG
An error has occurred. This application may no longer respond until reloaded. Reload 🗙